Time;durP1;ratioP1;P1;durP2;ratioP2;P2;SDS_P1;SDS_P2;PMS_P1;PMS_P2;Temp;Humidity;BMP_temperature;BMP_pressure;BME280_temperature;BME280_humidity;BME280_pressure;Samples;Min_cycle;Max_cycle;Signal;HPM_P1;HPM_P2
2023/10/01 00:02:05;;;;;;;;;;;;;;;13.07;100.00;102320.16;5951991;24;20108;-80
2023/10/01 00:10:27;;;;;;;8.02;3.03;;;;;;;13.10;100.00;102290.06;5921619;24;20093;-80
2023/10/01 00:13:56;;;;;;;5.68;2.53;;;;;;;13.10;100.00;102290.06;6036149;23;20053;-80
2023/10/01 00:18:15;;;;;;;6.60;3.10;;;;;;;13.09;100.00;102288.47;5948570;24;20020;-80
2023/10/01 00:22:00;;;;;;;5.22;3.00;;;;;;;13.06;100.00;102287.06;5980720;24;20475;-80
2023/10/01 00:26:01;;;;;;;6.60;2.88;;;;;;;13.03;100.00;102289.44;5974105;24;20020;-79
2023/10/01 00:29:19;;;;;;;6.88;2.47;;;;;;;13.03;100.00;102294.81;5963240;24;20031;-79
2023/10/01 00:32:55;;;;;;;4.00;2.33;;;;;;;12.98;100.00;102278.63;5939407;24;20076;-81
2023/10/01 00:35:38;;;;;;;6.47;2.50;;;;;;;13.00;100.00;102284.53;5950873;23;20023;-80
2023/10/01 00:38:19;;;;;;;4.32;2.03;;;;;;;12.97;100.00;102279.69;6043596;23;20096;-80
2023/10/01 00:41:08;;;;;;;4.90;2.33;;;;;;;12.98;100.00;102275.91;5995025;23;20158;-81
2023/10/01 00:43:55;;;;;;;5.28;2.70;;;;;;;12.98;100.00;102265.16;6066205;23;20034;-79
2023/10/01 00:46:34;;;;;;;8.68;2.95;;;;;;;12.99;100.00;102272.16;6044906;23;20019;-80
2023/10/01 00:49:14;;;;;;;3.72;2.50;;;;;;;12.97;100.00;102258.97;6038873;23;20041;-80
2023/10/01 00:51:48;;;;;;;6.57;3.13;;;;;;;12.98;100.00;102251.72;6066060;23;20094;-80
2023/10/01 00:54:36;;;;;;;4.75;2.80;;;;;;;12.99;100.00;102251.47;5999670;23;20029;-79
2023/10/01 00:57:25;;;;;;;8.52;2.70;;;;;;;13.00;100.00;102245.03;6041893;23;20100;-79
2023/10/01 00:59:54;;;;;;;4.45;2.40;;;;;;;12.99;100.00;102246.09;6018506;23;20040;-79
2023/10/01 01:02:25;;;;;;;5.90;2.65;;;;;;;12.99;100.00;102245.28;5994378;23;20074;-80
2023/10/01 01:05:57;;;;;;;7.70;3.03;;;;;;;13.00;100.00;102247.72;6042857;23;20110;-81
2023/10/01 01:09:28;;;;;;;5.07;2.40;;;;;;;13.01;100.00;102256.63;6042832;23;20055;-80
2023/10/01 01:13:03;;;;;;;6.40;2.60;;;;;;;12.97;100.00;102239.34;6152282;23;20076;-80
2023/10/01 01:16:05;;;;;;;4.85;2.85;;;;;;;12.94;100.00;102240.66;6092682;23;20104;-80
2023/10/01 01:19:42;;;;;;;4.72;2.42;;;;;;;12.93;100.00;102246.25;6127318;23;20031;-81
2023/10/01 01:24:07;;;;;;;7.53;3.17;;;;;;;12.94;100.00;102231.75;6144025;23;20027;-80
2023/10/01 01:27:53;;;;;;;7.35;3.20;;;;;;;12.97;100.00;102231.28;6153849;23;20048;-81
2023/10/01 01:30:50;;;;;;;7.03;2.83;;;;;;;12.95;100.00;102225.34;6129927;23;20065;-80
2023/10/01 01:33:26;;;;;;;4.30;2.63;;;;;;;12.95;100.00;102225.34;6100657;23;20097;-81
2023/10/01 01:36:23;;;;;;;5.63;2.92;;;;;;;12.97;100.00;102223.22;6124078;23;20021;-81
2023/10/01 01:39:26;;;;;;;5.20;2.70;;;;;;;12.97;100.00;102236.66;6124159;23;20018;-81
2023/10/01 01:41:54;;;;;;;6.90;3.15;;;;;;;12.97;100.00;102250.91;6079248;23;20029;-80
2023/10/01 01:45:15;;;;;;;7.90;2.90;;;;;;;12.94;100.00;102239.81;6125453;23;20408;-81
2023/10/01 01:59:27;;;;;;;6.70;2.85;;;;;;;12.93;100.00;102230.13;5997363;23;20024;-80
2023/10/01 02:03:26;;;;;;;8.18;2.97;;;;;;;12.93;100.00;102217.50;6025961;23;20069;-80
2023/10/01 02:06:04;;;;;;;7.18;2.80;;;;;;;12.92;100.00;102225.81;5982018;23;20023;-80
2023/10/01 02:09:15;;;;;;;5.20;2.80;;;;;;;12.92;100.00;102217.75;5991375;23;20022;-80
2023/10/01 02:12:55;;;;;;;7.03;3.10;;;;;;;12.91;100.00;102208.88;6031195;23;20034;-80
2023/10/01 02:23:02;;;;;;;6.80;3.10;;;;;;;12.86;100.00;102214.19;6064411;23;20497;-81
2023/10/01 02:34:12;;;;;;;6.38;3.30;;;;;;;12.87;100.00;102213.16;6047930;23;20022;-80
2023/10/01 03:03:04;;;;;;;7.03;3.15;;;;;;;12.78;100.00;102201.97;5928478;24;20051;-80
2023/10/01 03:05:36;;;;;;;5.53;2.83;;;;;;;12.78;100.00;102210.06;5964940;23;20042;-80
2023/10/01 03:08:11;;;;;;;6.97;2.85;;;;;;;12.78;100.00;102212.75;6128756;23;20028;-79
2023/10/01 03:10:38;;;;;;;5.35;3.10;;;;;;;12.77;100.00;102210.31;6081834;23;20021;-80
2023/10/01 03:13:17;;;;;;;6.97;3.63;;;;;;;12.79;100.00;102219.75;6080300;23;20072;-80
2023/10/01 03:16:39;;;;;;;6.43;3.25;;;;;;;12.76;100.00;102209.50;6103969;23;20111;-79
2023/10/01 03:18:34;;;;;;;6.30;3.28;;;;;;;12.78;100.00;102218.13;6128384;23;20017;-80
2023/10/01 03:21:07;;;;;;;10.15;3.50;;;;;;;12.78;100.00;102212.75;6080330;23;20009;-79
2023/10/01 03:23:33;;;;;;;7.93;3.72;;;;;;;12.77;100.00;102211.13;6128295;23;20010;-79
2023/10/01 03:26:07;;;;;;;7.18;4.00;;;;;;;12.77;100.00;102216.50;6104284;23;20101;-80
2023/10/01 03:31:26;;;;;;;;;;;;;;;12.79;100.00;102211.69;6105135;23;20010;-79
2023/10/01 03:33:55;;;;;;;7.07;3.75;;;;;;;12.78;100.00;102211.94;6096702;23;19920;-79
2023/10/01 03:36:32;;;;;;;6.65;3.35;;;;;;;12.76;100.00;102206.81;6077203;23;20407;-79
2023/10/01 03:47:19;;;;;;;6.10;3.15;;;;;;;12.79;100.00;102208.19;6098671;23;20072;-79
2023/10/01 03:49:46;;;;;;;5.15;3.25;;;;;;;12.79;100.00;102200.91;6051258;23;20156;-79
2023/10/01 03:52:20;;;;;;;7.18;3.33;;;;;;;12.79;100.00;102208.97;6051579;23;20375;-80
2023/10/01 03:55:00;;;;;;;10.02;4.60;;;;;;;12.79;100.00;102208.97;6097947;23;20014;-79
2023/10/01 03:57:30;;;;;;;7.72;3.85;;;;;;;12.78;100.00;102195.78;6099748;23;20793;-78
2023/10/01 04:00:08;;;;;;;6.25;3.50;;;;;;;12.79;100.00;102192.84;6075551;23;20020;-79
2023/10/01 04:02:46;;;;;;;6.25;3.33;;;;;;;12.77;100.00;102188.81;6075323;23;20089;-79
2023/10/01 04:05:22;;;;;;;7.28;3.22;;;;;;;12.75;100.00;102189.06;6099863;23;20018;-79
2023/10/01 04:07:49;;;;;;;7.57;4.00;;;;;;;12.77;100.00;102183.41;6074958;23;20090;-79
2023/10/01 04:10:28;;;;;;;8.88;4.22;;;;;;;12.76;100.00;102187.19;6075320;23;20014;-79
2023/10/01 04:12:58;;;;;;;9.82;3.90;;;;;;;12.73;100.00;102180.41;6051375;23;20017;-79
2023/10/01 04:15:27;;;;;;;5.53;3.47;;;;;;;12.69;100.00;102181.97;6051346;23;20014;-79
2023/10/01 04:23:41;;;;;;;8.23;4.10;;;;;;;12.64;100.00;102179.22;6099561;23;20525;-80
2023/10/01 04:26:11;;;;;;;7.88;4.32;;;;;;;12.65;100.00;102204.22;6100387;23;20013;-79
2023/10/01 04:28:46;;;;;;;8.88;4.85;;;;;;;12.62;100.00;102202.84;6075454;23;20065;-80
2023/10/01 04:31:19;;;;;;;6.90;4.10;;;;;;;12.64;100.00;102199.91;6071396;23;20032;-80
2023/10/01 04:33:50;;;;;;;6.47;4.47;;;;;;;12.64;100.00;102189.16;6099096;23;20010;-79
2023/10/01 04:36:19;;;;;;;8.90;4.68;;;;;;;12.61;100.00;102195.84;6051998;23;20017;-81
2023/10/01 04:38:52;;;;;;;8.95;4.95;;;;;;;12.57;100.00;102183.97;6120323;23;20064;-80
2023/10/01 04:41:26;;;;;;;7.53;4.57;;;;;;;12.56;100.00;102191.22;6124042;23;20033;-80
2023/10/01 04:43:51;;;;;;;9.95;5.03;;;;;;;12.55;100.00;102186.09;6075130;23;20060;-80
2023/10/01 04:46:29;;;;;;;;;;;;;;;12.53;100.00;102182.81;6076484;23;20070;-80
2023/10/01 04:48:57;;;;;;;7.65;4.50;;;;;;;12.49;100.00;102176.31;6094519;23;19913;-80
2023/10/01 04:51:40;;;;;;;8.13;5.32;;;;;;;12.47;100.00;102173.09;6075476;23;20034;-79
2023/10/01 04:54:07;;;;;;;9.77;4.88;;;;;;;12.41;100.00;102168.69;6104230;23;20440;-79
2023/10/01 04:56:32;;;;;;;9.73;5.55;;;;;;;12.40;100.00;102180.50;6052077;23;20024;-79
2023/10/01 04:59:11;;;;;;;10.55;5.75;;;;;;;12.40;100.00;102172.44;6099710;23;20017;-80
2023/10/01 05:07:04;;;;;;;10.32;5.80;;;;;;;12.34;100.00;102184.19;6025960;23;20911;-81
2023/10/01 05:10:52;;;;;;;16.50;6.20;;;;;;;12.27;100.00;102179.78;6074662;23;20444;-81
2023/10/01 05:18:45;;;;;;;7.22;4.97;;;;;;;12.19;100.00;102193.63;6097704;23;20023;-80
2023/10/01 05:22:08;;;;;;;10.70;6.72;;;;;;;12.19;100.00;102188.25;6126780;23;20038;-82
2023/10/01 05:25:59;;;;;;;10.52;6.15;;;;;;;12.17;100.00;102176.13;6119814;23;20364;-81
2023/10/01 05:29:06;;;;;;;10.70;6.50;;;;;;;12.19;100.00;102177.50;6111090;23;20018;-82
2023/10/01 05:32:51;;;;;;;11.27;6.18;;;;;;;12.21;100.00;102174.56;6083322;23;20025;-81
2023/10/01 05:36:24;;;;;;;9.50;7.15;;;;;;;12.21;100.00;102175.38;6115014;23;20041;-82
2023/10/01 05:44:34;;;;;;;10.75;6.60;;;;;;;12.26;100.00;102194.28;6068888;23;20106;-82
2023/10/01 05:48:49;;;;;;;9.10;6.22;;;;;;;12.33;100.00;102199.47;6035119;23;20118;-81
2023/10/01 05:53:20;;;;;;;11.10;5.72;;;;;;;12.34;100.00;102198.41;6069710;23;20019;-81
2023/10/01 05:56:55;;;;;;;11.82;7.22;;;;;;;12.37;100.00;102207.84;6087526;23;20066;-79
2023/10/01 05:59:22;;;;;;;11.23;6.95;;;;;;;12.38;100.00;102212.16;6060022;23;20052;-79
2023/10/01 06:01:48;;;;;;;11.48;8.32;;;;;;;12.40;100.00;102223.50;6101418;23;20014;-80
2023/10/01 06:04:17;;;;;;;12.38;7.45;;;;;;;12.42;100.00;102224.88;6077243;23;20474;-80
2023/10/01 06:06:45;;;;;;;15.05;8.57;;;;;;;12.45;100.00;102218.97;6125621;23;20024;-79
2023/10/01 06:09:15;;;;;;;13.20;8.57;;;;;;;12.46;100.00;102220.63;6077605;23;20092;-79
2023/10/01 06:11:48;;;;;;;11.77;8.02;;;;;;;12.50;100.00;102220.94;6053923;23;20017;-79
2023/10/01 06:17:01;;;;;;;9.98;6.95;;;;;;;12.57;100.00;102205.47;6081949;23;20092;-79
2023/10/01 06:19:32;;;;;;;11.95;7.05;;;;;;;12.61;100.00;102217.34;6098666;23;20364;-78
2023/10/01 06:22:12;;;;;;;13.00;8.77;;;;;;;12.66;100.00;102221.97;6101911;23;20024;-78
2023/10/01 06:24:43;;;;;;;13.15;8.45;;;;;;;12.70;100.00;102212.34;6103028;23;20078;-79
2023/10/01 06:27:12;;;;;;;11.90;8.30;;;;;;;12.73;100.00;102214.53;6106272;23;20021;-80
2023/10/01 06:29:49;;;;;;;13.50;8.43;;;;;;;12.75;100.00;102215.94;6131652;23;20021;-80
2023/10/01 06:32:18;;;;;;;14.73;9.05;;;;;;;12.80;100.00;102221.38;6082708;23;20019;-80
2023/10/01 06:34:45;;;;;;;15.55;9.13;;;;;;;12.85;100.00;102218.75;6081708;23;20444;-80
2023/10/01 06:37:12;;;;;;;14.15;8.90;;;;;;;12.93;100.00;102216.69;6080596;23;20017;-80
2023/10/01 06:39:41;;;;;;;15.65;10.20;;;;;;;12.99;100.00;102218.38;6056754;23;20021;-80
2023/10/01 06:42:19;;;;;;;17.52;9.73;;;;;;;13.04;100.00;102205.81;6081918;23;20021;-79
2023/10/01 06:44:55;;;;;;;15.60;9.30;;;;;;;13.11;100.00;102205.63;6080266;23;20533;-78
2023/10/01 06:47:28;;;;;;;13.65;9.65;;;;;;;13.16;100.00;102213.78;6080776;23;20072;-78
2023/10/01 06:50:14;;;;;;;15.20;9.02;;;;;;;13.20;100.00;102217.59;6080318;23;20045;-78
2023/10/01 06:52:43;;;;;;;14.73;9.85;;;;;;;13.24;100.00;102226.81;6105145;23;20017;-76
2023/10/01 06:55:28;;;;;;;17.98;9.70;;;;;;;13.30;100.00;102219.59;6128177;23;20026;-79
2023/10/01 06:57:55;;;;;;;17.30;10.63;;;;;;;13.33;100.00;102227.16;6082530;23;20017;-77
2023/10/01 11:51:48;;;;;;;11.60;6.05;;;;;;;16.50;94.54;102157.41;6136204;23;20025;-91
2023/10/01 11:54:43;;;;;;;14.18;6.68;;;;;;;16.43;97.31;102160.38;6108586;23;20024;-90
2023/10/01 11:57:35;;;;;;;11.40;6.80;;;;;;;16.24;99.92;102162.03;6133327;23;20530;-92
2023/10/01 12:00:01;;;;;;;15.60;7.15;;;;;;;16.18;100.00;102165.84;6133381;23;20028;-91
2023/10/01 12:02:43;;;;;;;13.32;6.82;;;;;;;16.11;100.00;102166.91;6157919;23;20017;-91
2023/10/01 12:05:13;;;;;;;12.98;7.43;;;;;;;16.06;100.00;102164.25;6108189;23;20024;-90
2023/10/01 12:07:45;;;;;;;20.35;7.60;;;;;;;16.04;100.00;102160.19;6108693;23;20016;-91
2023/10/01 12:12:59;;;;;;;15.07;6.25;;;;;;;15.89;100.00;102152.91;6132621;23;20016;-89
2023/10/01 12:15:34;;;;;;;11.07;6.15;;;;;;;15.82;100.00;102161.28;6133871;23;20021;-91
2023/10/01 12:18:07;;;;;;;12.02;6.40;;;;;;;15.73;100.00;102159.38;6134677;23;20439;-91
2023/10/01 12:20:56;;;;;;;11.98;6.07;;;;;;;15.64;100.00;102145.59;6130744;23;20093;-90
2023/10/01 12:23:22;;;;;;;13.18;6.05;;;;;;;15.62;100.00;102153.16;6134377;23;20051;-91
2023/10/01 12:28:28;;;;;;;;;;;;;;;15.56;100.00;102155.00;6134891;23;20017;-90
2023/10/01 12:31:08;;;;;;;11.88;5.82;;;;;;;15.48;100.00;102147.44;6159068;23;19959;-89
2023/10/01 12:33:40;;;;;;;7.63;5.10;;;;;;;15.48;100.00;102142.03;6110341;23;20044;-90
2023/10/01 12:36:52;;;;;;;9.63;6.50;;;;;;;15.51;100.00;102149.63;6110088;23;20043;-89
2023/10/01 12:44:30;;;;;;;12.30;6.40;;;;;;;15.44;100.00;102150.94;6131787;23;20017;-91
2023/10/01 12:47:15;;;;;;;11.40;6.35;;;;;;;15.45;100.00;102148.00;6109824;23;20012;-90
2023/10/01 12:49:58;;;;;;;12.63;6.70;;;;;;;15.48;100.00;102160.94;6134164;23;20009;-90
2023/10/01 12:52:30;;;;;;;10.20;6.82;;;;;;;15.51;100.00;102156.88;6133915;23;20028;-89
2023/10/01 12:55:00;;;;;;;10.30;6.20;;;;;;;15.50;100.00;102157.97;6110313;23;20013;-90
2023/10/01 12:57:33;;;;;;;9.75;5.97;;;;;;;15.49;100.00;102159.88;6158891;23;20013;-90
2023/10/01 13:02:45;;;;;;;11.27;6.45;;;;;;;15.48;100.00;102147.44;6134266;23;20096;-88
2023/10/01 13:05:19;;;;;;;13.10;8.13;;;;;;;15.44;100.00;102143.66;6109498;23;20380;-88
2023/10/01 13:07:51;;;;;;;12.00;6.43;;;;;;;15.48;100.00;102149.34;6133822;23;20088;-91
2023/10/01 13:10:34;;;;;;;11.25;7.60;;;;;;;15.39;100.00;102154.47;6109328;23;20088;-90
2023/10/01 13:13:05;;;;;;;10.80;6.88;;;;;;;15.41;100.00;102154.19;6110169;23;20044;-91
2023/10/01 13:15:33;;;;;;;12.60;7.38;;;;;;;15.43;100.00;102160.94;6133955;23;20013;-91
2023/10/01 13:18:01;;;;;;;10.13;6.82;;;;;;;15.40;100.00;102150.69;6159202;23;20056;-89
2023/10/01 13:20:31;;;;;;;13.93;7.38;;;;;;;15.44;100.00;102162.53;6133180;23;20075;-90
2023/10/01 13:23:06;;;;;;;10.98;6.57;;;;;;;15.45;100.00;102158.00;6134351;23;20100;-90
2023/10/01 13:25:36;;;;;;;9.02;6.65;;;;;;;15.50;100.00;102153.38;6109579;23;20013;-91
2023/10/01 13:28:04;;;;;;;12.43;7.43;;;;;;;15.48;100.00;102150.16;6109928;23;20009;-90
2023/10/01 13:30:31;;;;;;;9.73;6.95;;;;;;;15.48;100.00;102144.75;6133667;23;20013;-88
2023/10/01 13:33:10;;;;;;;13.30;7.13;;;;;;;15.51;100.00;102138.81;6134180;23;20055;-89
2023/10/01 13:35:36;;;;;;;12.27;8.57;;;;;;;15.49;100.00;102132.88;6109327;23;20012;-88
2023/10/01 13:38:26;;;;;;;10.80;6.63;;;;;;;15.53;100.00;102139.34;6133502;23;20080;-91
2023/10/01 14:11:06;;;;;;;15.18;8.60;;;;;;;15.91;100.00;102122.91;6132136;23;20143;-90
2023/10/01 14:13:35;;;;;;;11.43;7.47;;;;;;;15.88;100.00;102113.47;6104635;23;20012;-90
2023/10/01 14:16:17;;;;;;;14.75;8.60;;;;;;;15.94;100.00;102104.25;6106896;23;20071;-89
2023/10/01 14:21:51;;;;;;;13.05;8.95;;;;;;;15.98;100.00;102108.03;6091391;23;20072;-90
2023/10/01 14:24:25;;;;;;;15.27;8.25;;;;;;;16.01;100.00;102095.88;6106636;23;20498;-91
2023/10/01 14:26:51;;;;;;;12.50;7.43;;;;;;;16.06;100.00;102102.09;6131592;23;20020;-90
2023/10/01 14:29:22;;;;;;;16.17;8.55;;;;;;;16.07;100.00;102092.09;6133045;23;20474;-90
2023/10/01 14:31:50;;;;;;;10.95;6.93;;;;;;;16.10;100.00;102097.75;6133112;23;20052;-89
2023/10/01 14:34:17;;;;;;;16.80;9.90;;;;;;;16.10;100.00;102095.03;6133375;23;20016;-89
2023/10/01 14:36:43;;;;;;;16.58;8.88;;;;;;;16.08;100.00;102096.41;6084627;23;20021;-91
2023/10/01 14:39:12;;;;;;;15.18;8.45;;;;;;;16.11;100.00;102088.53;6108148;23;20017;-90
2023/10/01 14:41:41;;;;;;;18.33;8.80;;;;;;;16.10;100.00;102089.63;6132879;23;20013;-90
2023/10/01 14:44:13;;;;;;;13.82;8.80;;;;;;;16.16;100.00;102089.63;6133929;23;20032;-91
2023/10/01 14:46:46;;;;;;;13.65;8.68;;;;;;;16.21;100.00;102092.31;6081986;23;20025;-89
2023/10/01 14:49:17;;;;;;;17.85;8.90;;;;;;;16.18;100.00;102079.34;6108585;23;20450;-88
2023/10/01 14:51:56;;;;;;;13.43;7.60;;;;;;;16.21;100.00;102079.63;6183671;23;20012;-90
2023/10/01 14:54:22;;;;;;;16.02;8.77;;;;;;;16.23;100.00;102072.03;6108714;23;20024;-90
2023/10/01 14:56:58;;;;;;;15.57;7.57;;;;;;;16.28;100.00;102072.03;6134658;23;20013;-89
2023/10/01 14:59:29;;;;;;;12.88;7.93;;;;;;;16.30;100.00;102074.44;6105517;23;20029;-89
2023/10/01 15:01:56;;;;;;;13.82;8.90;;;;;;;16.33;100.00;102076.63;6129086;23;20055;-90
2023/10/01 15:04:24;;;;;;;;;;;;;;;16.28;100.00;102069.31;6106902;23;20008;-88
2023/10/01 15:07:05;;;;;;;14.93;7.72;;;;;;;16.30;100.00;102077.97;6105132;23;19908;-90
2023/10/01 15:09:39;;;;;;;15.15;8.38;;;;;;;16.33;100.00;102076.63;6128788;23;20013;-90
2023/10/01 15:12:07;;;;;;;16.02;9.52;;;;;;;16.35;100.00;102069.03;6129759;23;20013;-90
2023/10/01 15:14:33;;;;;;;17.15;8.75;;;;;;;16.36;100.00;102081.47;6104761;23;20800;-90
2023/10/01 15:17:01;;;;;;;;;;;;;;;16.38;100.00;102077.38;6131866;23;20013;-90
2023/10/01 15:19:30;;;;;;;12.80;6.53;;;;;;;16.34;100.00;102067.41;6132683;23;19912;-89
2023/10/01 15:22:08;;;;;;;11.23;6.45;;;;;;;16.39;100.00;102064.69;6133141;23;20099;-89
2023/10/01 15:24:35;;;;;;;14.65;8.55;;;;;;;16.44;100.00;102061.97;6132684;23;20021;-90
2023/10/01 15:27:04;;;;;;;15.63;7.55;;;;;;;16.48;100.00;102062.22;6108752;23;20016;-90
2023/10/01 15:29:31;;;;;;;11.98;7.35;;;;;;;16.51;100.00;102067.88;6108306;23;20004;-90
2023/10/01 15:31:57;;;;;;;13.50;7.57;;;;;;;16.52;100.00;102057.88;6132567;23;20020;-89
2023/10/01 15:34:23;;;;;;;14.07;8.07;;;;;;;16.54;100.00;102059.22;6108057;23;20008;-90
2023/10/01 15:36:49;;;;;;;;;;;;;;;16.55;100.00;102058.13;6108186;23;20039;-89
2023/10/01 15:42:09;;;;;;;12.52;6.68;;;;;;;16.56;100.00;102040.00;6132654;23;20017;-91
2023/10/01 15:44:59;;;;;;;12.52;7.72;;;;;;;16.57;100.00;102050.53;6108573;23;20009;-89
2023/10/01 15:47:42;;;;;;;13.05;7.05;;;;;;;16.56;100.00;102051.63;6109235;23;20017;-90
2023/10/01 15:50:11;;;;;;;11.10;6.45;;;;;;;16.54;100.00;102037.59;6107916;23;20012;-90
2023/10/01 15:52:45;;;;;;;15.77;8.43;;;;;;;16.51;100.00;102040.84;6108234;23;20013;-89
2023/10/01 15:55:13;;;;;;;12.80;6.38;;;;;;;16.49;100.00;102043.00;6110469;23;20021;-90
2023/10/01 15:57:39;;;;;;;14.00;7.57;;;;;;;16.48;100.00;102033.28;6156559;23;20092;-90
2023/10/01 16:00:25;;;;;;;14.38;7.80;;;;;;;16.48;100.00;102030.59;6108585;23;20582;-91
2023/10/01 16:03:02;;;;;;;10.32;6.65;;;;;;;16.46;100.00;102030.06;6133157;23;20443;-90
2023/10/01 16:05:40;;;;;;;13.70;7.03;;;;;;;16.42;100.00;102031.69;6107830;23;20020;-91
2023/10/01 16:08:17;;;;;;;15.30;7.60;;;;;;;16.38;100.00;102031.41;6132977;23;20083;-89
2023/10/01 16:10:45;;;;;;;13.45;7.22;;;;;;;16.39;100.00;102034.94;6132049;23;20017;-90
2023/10/01 16:13:18;;;;;;;11.80;7.10;;;;;;;16.37;100.00;102040.63;6133438;23;20100;-89
2023/10/01 16:15:45;;;;;;;13.32;6.63;;;;;;;16.34;100.00;102040.38;6132854;23;20478;-89
2023/10/01 16:18:15;;;;;;;12.40;6.30;;;;;;;16.33;100.00;102049.59;6108027;23;20013;-90
2023/10/01 16:20:41;;;;;;;10.52;6.43;;;;;;;16.32;100.00;102047.94;6126853;23;20092;-91
2023/10/01 16:23:17;;;;;;;10.30;6.55;;;;;;;16.31;100.00;102041.72;6183438;23;20020;-91
2023/10/01 16:25:45;;;;;;;11.88;6.32;;;;;;;16.30;100.00;102034.72;6104495;23;20021;-90
2023/10/01 16:28:23;;;;;;;15.45;6.55;;;;;;;16.28;100.00;102036.09;6156472;23;20006;-90
2023/10/01 16:31:03;;;;;;;13.88;6.45;;;;;;;16.26;100.00;102043.66;6132956;23;20024;-91
2023/10/01 16:33:40;;;;;;;12.25;6.63;;;;;;;16.24;100.00;102052.03;6107802;23;20023;-89
2023/10/01 16:36:26;;;;;;;11.90;6.75;;;;;;;16.23;100.00;102036.09;6108577;23;20017;-90
2023/10/01 16:38:54;;;;;;;10.43;5.50;;;;;;;16.20;100.00;102042.88;6128901;23;20070;-91
2023/10/01 16:41:22;;;;;;;12.23;6.85;;;;;;;16.19;100.00;102037.72;6157314;23;20084;-90
2023/10/01 16:43:54;;;;;;;12.20;6.65;;;;;;;16.15;100.00;102047.47;6132558;23;20048;-89
2023/10/01 16:46:24;;;;;;;10.90;5.53;;;;;;;16.14;100.00;102041.25;6107826;23;20024;-90
2023/10/01 16:48:58;;;;;;;12.45;5.93;;;;;;;16.10;100.00;102035.59;6132313;23;20021;-91
2023/10/01 16:51:25;;;;;;;10.60;5.63;;;;;;;16.10;100.00;102041.00;6132589;23;20017;-91
2023/10/01 16:53:56;;;;;;;10.82;6.57;;;;;;;16.09;100.00;102039.38;6156396;23;20017;-92
2023/10/01 16:56:24;;;;;;;11.32;6.40;;;;;;;16.06;100.00;102039.94;6132419;23;20020;-89
2023/10/01 16:58:57;;;;;;;11.15;6.05;;;;;;;16.06;100.00;102049.94;6108611;23;20020;-91
2023/10/01 17:01:29;;;;;;;14.13;6.65;;;;;;;16.04;100.00;102046.69;6108410;23;20055;-90
2023/10/01 17:04:07;;;;;;;10.85;6.20;;;;;;;16.01;100.00;102053.47;6109729;23;20041;-92
2023/10/01 17:06:35;;;;;;;10.75;6.63;;;;;;;16.00;100.00;102046.44;6157537;23;20016;-90
2023/10/01 17:09:12;;;;;;;12.02;6.57;;;;;;;15.99;100.00;102060.22;6133553;23;20012;-91
2023/10/01 17:11:42;;;;;;;11.15;6.95;;;;;;;15.97;100.00;102046.97;6109284;23;20741;-89
2023/10/01 17:14:12;;;;;;;9.88;6.13;;;;;;;15.97;100.00;102055.06;6134866;23;20773;-90
2023/10/01 17:16:48;;;;;;;8.50;5.50;;;;;;;15.97;100.00;102046.16;6109345;23;20493;-90
2023/10/01 17:19:17;;;;;;;11.02;6.03;;;;;;;15.96;100.00;102053.47;6133666;23;20036;-90
2023/10/01 17:21:45;;;;;;;12.00;6.00;;;;;;;15.94;100.00;102054.81;6157615;23;20024;-90
2023/10/01 17:24:21;;;;;;;10.00;6.10;;;;;;;15.93;100.00;102051.31;6109646;23;20073;-91
2023/10/01 17:26:48;;;;;;;11.43;5.28;;;;;;;15.93;100.00;102048.63;6110211;23;20079;-93
2023/10/01 17:29:20;;;;;;;10.43;6.13;;;;;;;15.92;100.00;102048.88;6109386;23;20009;-89
2023/10/01 17:31:54;;;;;;;14.32;6.00;;;;;;;15.90;100.00;102043.75;6108517;23;20017;-91
2023/10/01 17:34:24;;;;;;;10.85;5.40;;;;;;;15.91;100.00;102048.06;6128001;23;20020;-91
2023/10/01 17:37:07;;;;;;;10.65;6.00;;;;;;;15.91;100.00;102052.66;6109874;23;20019;-89
2023/10/01 17:39:34;;;;;;;9.93;5.55;;;;;;;15.90;100.00;102056.44;6108605;23;20451;-88
2023/10/01 17:42:02;;;;;;;14.30;6.70;;;;;;;15.88;100.00;102051.31;6158022;23;20009;-90
2023/10/01 17:44:32;;;;;;;9.90;5.80;;;;;;;15.87;100.00;102049.72;6133271;23;20017;-88
2023/10/01 17:47:07;;;;;;;11.30;5.57;;;;;;;15.87;100.00;102043.50;6134436;23;20039;-89
2023/10/01 17:49:34;;;;;;;11.65;6.90;;;;;;;15.85;100.00;102038.38;6108466;23;20135;-88
2023/10/01 17:52:18;;;;;;;8.52;5.53;;;;;;;15.83;100.00;102024.31;6133798;23;20021;-89
2023/10/01 17:54:48;;;;;;;12.15;6.78;;;;;;;15.81;100.00;102037.28;6132996;23;20021;-90
2023/10/01 17:57:29;;;;;;;7.55;5.20;;;;;;;15.78;100.00;102037.81;6133940;23;20021;-87
2023/10/01 18:00:31;;;;;;;9.55;5.60;;;;;;;15.76;100.00;102037.28;6108879;23;20028;-90
2023/10/01 18:03:00;;;;;;;12.00;5.80;;;;;;;15.73;100.00;102032.44;6109481;23;20013;-88
2023/10/01 18:05:27;;;;;;;11.20;6.13;;;;;;;15.71;100.00;102021.91;6108897;23;20095;-89
2023/10/01 18:08:04;;;;;;;12.02;6.25;;;;;;;15.72;100.00;102022.72;6133836;23;20009;-90
2023/10/01 18:10:41;;;;;;;13.02;7.22;;;;;;;15.71;100.00;102030.00;6157141;23;20012;-91
2023/10/01 18:13:22;;;;;;;11.32;6.03;;;;;;;15.70;100.00;102030.28;6133536;23;20033;-89
2023/10/01 18:15:54;;;;;;;10.70;5.80;;;;;;;15.71;100.00;102023.78;6133342;23;20506;-89
2023/10/01 18:18:25;;;;;;;8.55;5.07;;;;;;;15.69;100.00;102034.06;6133986;23;20013;-89
2023/10/01 18:20:54;;;;;;;9.80;5.20;;;;;;;15.71;100.00;102042.69;6134011;23;20013;-90
2023/10/01 18:23:20;;;;;;;11.35;5.70;;;;;;;15.70;100.00;102041.88;6134128;23;20064;-88
2023/10/01 18:25:55;;;;;;;;;;;;;;;15.70;100.00;102036.47;6110157;23;20017;-89
2023/10/01 18:28:22;;;;;;;11.70;6.40;;;;;;;15.68;100.00;102043.25;6109921;23;19912;-88
2023/10/01 18:30:48;;;;;;;12.45;6.80;;;;;;;15.66;100.00;102038.13;6109921;23;20040;-91
2023/10/01 18:33:15;;;;;;;;;;;;;;;15.69;100.00;102050.28;6134359;23;20024;-90
2023/10/01 18:35:44;;;;;;;9.07;5.57;;;;;;;15.66;100.00;102040.03;6109069;23;20319;-87
2023/10/01 18:38:14;;;;;;;11.00;6.03;;;;;;;15.66;100.00;102045.44;6158461;23;20040;-89
2023/10/01 18:40:42;;;;;;;11.15;6.47;;;;;;;15.64;100.00;102044.88;6108789;23;20027;-90
2023/10/01 18:43:08;;;;;;;13.40;6.35;;;;;;;15.68;100.00;102059.47;6109963;23;20067;-89
2023/10/01 18:45:35;;;;;;;;;;;;;;;15.67;100.00;102061.34;6158668;23;20013;-89
2023/10/01 18:48:02;;;;;;;12.15;7.22;;;;;;;15.64;100.00;102058.38;6134602;23;19908;-88
2023/10/01 18:50:28;;;;;;;11.13;6.03;;;;;;;15.65;100.00;102062.72;6133186;23;20017;-89
2023/10/01 18:52:54;;;;;;;11.05;6.38;;;;;;;15.65;100.00;102060.81;6107656;23;20017;-88
2023/10/01 18:55:20;;;;;;;10.45;5.07;;;;;;;15.65;100.00;102055.41;6132193;23;20055;-88
2023/10/01 18:57:48;;;;;;;11.90;7.00;;;;;;;15.68;100.00;102051.34;6109320;23;20020;-87
2023/10/01 19:00:22;;;;;;;14.75;8.40;;;;;;;15.68;100.00;102037.84;6108148;23;20021;-88
2023/10/01 19:02:51;;;;;;;11.45;7.80;;;;;;;15.68;100.00;102038.66;6108715;23;20868;-90
2023/10/01 19:05:17;;;;;;;13.30;8.05;;;;;;;15.68;100.00;102044.06;6159014;23;20015;-89
2023/10/01 19:07:43;;;;;;;11.63;7.05;;;;;;;15.69;100.00;102053.78;6108764;23;20017;-90
2023/10/01 19:10:13;;;;;;;;;;;;;;;15.70;100.00;102049.19;6109615;23;20447;-91
2023/10/01 19:12:45;;;;;;;8.23;5.70;;;;;;;15.69;100.00;102047.56;6109265;23;19908;-91
2023/10/01 19:15:16;;;;;;;11.57;7.38;;;;;;;15.69;100.00;102044.88;6133660;23;20013;-91
2023/10/01 19:17:48;;;;;;;11.30;6.78;;;;;;;15.67;100.00;102041.63;6106279;23;20096;-90
2023/10/01 19:20:18;;;;;;;14.95;6.85;;;;;;;15.67;100.00;102034.34;6108651;23;20013;-91
2023/10/01 19:22:47;;;;;;;14.80;7.30;;;;;;;15.67;100.00;102041.63;6133553;23;20012;-89
2023/10/01 19:25:21;;;;;;;12.00;6.93;;;;;;;15.66;100.00;102024.63;6133079;23;20023;-89
2023/10/01 19:27:51;;;;;;;8.85;5.72;;;;;;;15.67;100.00;102020.84;6158620;23;20016;-90